Richville, Oklahoma
Current Conditions -  °F | °C
As of 4:53 AM on Friday 28 Nov 2014 (Local Time) from KMLC Reporting Station
Broken Clouds Broken Clouds  
Wind Chill: 40°   Ceiling: 8000
Heat Index: 44°   Visibility: 10mi
Dew Point: 28°   Wind: 7mph
Humidity: 53%   Direction: NA
Pressure: 30.26"   Gusts: NA
Location:  34.9351°N, 95.8929°W
Report Text: KMLC 281053Z AUTO VRB06KT 10SM BKN080 07/M02 A3026 RMK AO2 SLP246 T00671022
Loading
Personal Weather Stations






























Interactive Weather Map New forecast layout! Learn more

10-Day Weather Forecast

Advertisements
Track Severe Weather on mobile